Archival Weather

Chicago O'Hare International

Chicago, Illinois (KORD)

Report from: Saturday, March 5, 2022 11:21 PM CST
Current time: Friday, February 3, 2023 11:52 PM CST

Current weather
Weather history
Weather forecast

Present weatherThunderstorm with rain
Temperature13.3°C (55.9°F)
Dew point10.6°C (51.1°F)
Winds 25 kts (12.9 m/s, 28.8 mph) West (260°)
Wind gusts 57 kts (29.3 m/s, 65.6 mph)
Peak wind 57 kts (29.3 m/s, 65.6 mph) West (280°) at 23:13
Visibility4 mi. (6.4 km)
Clouds Ceiling: Broken clouds 2,400 ft. (732 m)
Broken clouds with cumulonimbus 2,900 ft. (884 m)
Overcast 3,700 ft. (1,128 m)
Altimeter29.70 in.Hg (1006 mB)
Precipitiation0.03 in. (1 mm)
Precip. events Rain began 11:14 PM
Thunderstorm began 11:05 PM
Relative humidity84 %
Density altitude233 ft. (71 m)
Remarks System requires maintenance
Automated weather observing station with precipitation discriminator
Lightning observed
Lightning observed: intra cloud, cloud to ground
Distant southwest north occasional overhead thunderstorm overhead moving east
Flight conditions Marginal Visual Meteorological Conditions
Raw dataKORD 060521Z 26025G57KT 4SM TSRA BKN024 BKN029CB OVC037 13/11 A2970 RMK AO2 PK WND 28057/0513 WSHFT 0506 LTG DSNT SW-N RAB14 TSB05 OCNL LTGICCG OHD TS OHD MOV E P0003 T01330106 $
An unhandled exception has occurred. See browser dev tools for details. Reload 🗙